Terminal Aerodrome Forecast
Issued by NWS

Home | Current Version | Previous Version | Text Only | Print | Product List | Glossary On
Versions: 1 2 3 4 5 6 7 8 9 10 11 12 13 14 15 16 17
000
FTUS43 KDVN 090550
TAFCID
TAF
KCID 090550Z 0906/1006 29013KT P6SM BKN025
     FM091500 30008KT P6SM SCT025 BKN035
     FM092200 VRB03KT P6SM BKN070=

USA.gov is the U.S. government's official web portal to all federal, state and local government web resources and services.